createdAt,value
2023-03-01T00:01:47.591Z,8.60
2023-03-01T00:04:15.564Z,7.63
2023-03-01T00:06:47.213Z,9.13
2023-03-01T00:09:16.300Z,8.65
2023-03-01T00:11:46.033Z,9.30
2023-03-01T00:14:14.331Z,9.50
2023-03-01T00:16:44.695Z,8.55
2023-03-01T00:19:15.777Z,9.15
2023-03-01T00:21:44.675Z,8.65
2023-03-01T00:24:12.904Z,7.35
2023-03-01T00:26:41.324Z,8.25
2023-03-01T00:29:09.253Z,9.48
2023-03-01T00:31:37.557Z,9.38
2023-03-01T00:34:07.531Z,10.05
2023-03-01T00:36:37.797Z,10.43
2023-03-01T00:39:11.658Z,9.85
2023-03-01T00:41:41.213Z,8.95
2023-03-01T00:44:10.556Z,10.55
2023-03-01T00:46:39.866Z,10.38
2023-03-01T00:49:07.688Z,10.48
2023-03-01T00:51:36.231Z,10.90
2023-03-01T00:54:04.392Z,11.07
2023-03-01T00:56:33.635Z,10.73
2023-03-01T00:59:02.257Z,21.58
2023-03-01T01:01:31.833Z,12.75
2023-03-01T01:04:06.381Z,11.35
2023-03-01T01:06:37.732Z,11.63
2023-03-01T01:09:07.937Z,12.82
2023-03-01T01:11:40.012Z,11.48
2023-03-01T01:14:07.915Z,11.88
2023-03-01T01:16:36.225Z,11.95
2023-03-01T01:19:04.236Z,10.05
2023-03-01T01:21:32.763Z,9.52
2023-03-01T01:24:01.510Z,11.15
2023-03-01T01:26:32.265Z,10.80
2023-03-01T01:29:01.924Z,11.65
2023-03-01T01:31:31.924Z,12.57
2023-03-01T01:34:01.664Z,11.75
2023-03-01T01:36:30.980Z,12.30
2023-03-01T01:38:59.354Z,13.95
2023-03-01T01:41:29.608Z,12.80
2023-03-01T01:44:15.245Z,13.35
2023-03-01T01:46:58.910Z,13.95
2023-03-01T01:49:50.427Z,14.32
2023-03-01T01:52:31.289Z,12.60
2023-03-01T01:55:12.808Z,12.85
2023-03-01T01:57:46.809Z,13.77
2023-03-01T02:00:21.564Z,13.48
2023-03-01T02:02:56.348Z,13.05
2023-03-01T02:05:40.197Z,13.73
2023-03-01T02:08:09.957Z,12.93
2023-03-01T02:10:39.737Z,14.13
2023-03-01T02:13:08.618Z,14.00
2023-03-01T02:15:38.599Z,13.80
2023-03-01T02:18:09.626Z,14.30
2023-03-01T02:20:46.900Z,14.32
2023-03-01T02:23:15.059Z,14.25
2023-03-01T02:25:52.128Z,13.68
2023-03-01T02:28:35.538Z,14.73
2023-03-01T02:31:24.856Z,13.23
2023-03-01T02:33:54.391Z,13.27
2023-03-01T02:36:30.553Z,13.60
2023-03-01T02:39:01.868Z,14.15
2023-03-01T02:41:34.579Z,13.25
2023-03-01T02:44:08.597Z,14.82
2023-03-01T02:46:47.712Z,11.82
2023-03-01T02:49:25.637Z,11.65
2023-03-01T02:52:09.221Z,12.40
2023-03-01T02:54:52.448Z,11.57
2023-03-01T02:57:23.095Z,12.57
2023-03-01T02:59:54.032Z,12.10
2023-03-01T03:02:37.362Z,14.27
2023-03-01T03:05:25.945Z,12.65
2023-03-01T03:07:59.537Z,12.45
2023-03-01T03:10:36.196Z,12.45
2023-03-01T03:13:08.510Z,12.95
2023-03-01T03:15:37.142Z,13.13
2023-03-01T03:18:08.380Z,12.30
2023-03-01T03:20:37.629Z,13.50
2023-03-01T03:23:05.628Z,13.98
2023-03-01T03:25:33.778Z,14.93
2023-03-01T03:28:02.088Z,13.65
2023-03-01T03:30:32.706Z,14.02
2023-03-01T03:33:01.199Z,12.85
2023-03-01T03:35:36.106Z,13.27
2023-03-01T03:38:07.877Z,13.90
2023-03-01T03:40:39.757Z,13.30
2023-03-01T03:43:13.639Z,14.63
2023-03-01T03:45:42.395Z,15.70
2023-03-01T03:48:11.382Z,13.85
2023-03-01T03:50:41.406Z,13.43
2023-03-01T03:53:13.620Z,13.95
2023-03-01T03:55:41.956Z,14.10
2023-03-01T03:58:11.934Z,13.75
2023-03-01T04:00:43.216Z,13.55
2023-03-01T04:03:14.047Z,13.50
2023-03-01T04:05:42.643Z,12.52
2023-03-01T04:08:10.970Z,12.23
2023-03-01T04:10:41.977Z,12.65
2023-03-01T04:13:13.107Z,13.27
2023-03-01T04:15:44.156Z,13.07
2023-03-01T04:18:17.376Z,12.02
2023-03-01T04:20:46.238Z,11.55
2023-03-01T04:23:17.401Z,13.20
2023-03-01T04:25:58.084Z,12.82
2023-03-01T04:28:37.690Z,13.82
2023-03-01T04:31:16.843Z,12.95
2023-03-01T04:33:53.192Z,13.63
2023-03-01T04:36:26.929Z,13.32
2023-03-01T04:38:55.315Z,12.80
2023-03-01T04:41:25.792Z,12.77
2023-03-01T04:43:53.970Z,11.88
2023-03-01T04:46:23.196Z,11.57
2023-03-01T04:48:51.260Z,12.45
2023-03-01T04:51:19.718Z,12.68
2023-03-01T04:53:47.969Z,12.77
2023-03-01T04:56:17.055Z,12.75
2023-03-01T04:58:45.822Z,11.85
2023-03-01T05:01:20.891Z,14.05
2023-03-01T05:03:51.412Z,11.73
2023-03-01T05:06:21.243Z,12.35
2023-03-01T05:08:49.375Z,12.60
2023-03-01T05:11:17.526Z,12.38
2023-03-01T05:13:45.539Z,12.68
2023-03-01T05:16:13.805Z,13.52
2023-03-01T05:18:42.226Z,12.35
2023-03-01T05:21:13.776Z,13.05
2023-03-01T05:23:41.893Z,13.07
2023-03-01T05:26:25.871Z,11.32
2023-03-01T05:29:00.593Z,13.48
2023-03-01T05:31:29.631Z,12.35
2023-03-01T05:33:57.419Z,14.35
2023-03-01T05:36:25.906Z,12.48
2023-03-01T05:38:53.809Z,14.57
2023-03-01T05:41:22.702Z,13.55
2023-03-01T05:43:50.767Z,13.77
2023-03-01T05:46:18.998Z,13.68
2023-03-01T05:48:46.866Z,12.77
2023-03-01T05:51:15.048Z,13.35
2023-03-01T05:53:42.905Z,12.18
2023-03-01T05:56:12.183Z,12.63
2023-03-01T05:58:39.995Z,12.90
2023-03-01T06:01:13.807Z,14.07
2023-03-01T06:03:41.612Z,13.80
2023-03-01T06:06:09.805Z,15.35
2023-03-01T06:08:37.662Z,13.00
2023-03-01T06:11:06.567Z,15.43
2023-03-01T06:13:34.595Z,13.27
2023-03-01T06:16:07.111Z,14.13
2023-03-01T06:18:35.191Z,15.98
2023-03-01T06:21:03.500Z,15.70
2023-03-01T06:23:31.648Z,13.30
2023-03-01T06:26:01.091Z,14.70
2023-03-01T06:28:28.961Z,13.23
2023-03-01T06:30:57.345Z,14.88
2023-03-01T06:33:25.574Z,15.13
2023-03-01T06:35:57.904Z,14.10
2023-03-01T06:38:26.260Z,12.82
2023-03-01T06:40:57.704Z,13.30
2023-03-01T06:43:25.683Z,13.77
2023-03-01T06:45:53.844Z,14.38
2023-03-01T06:48:21.765Z,13.50
2023-03-01T06:50:49.510Z,15.25
2023-03-01T06:53:17.690Z,13.90
2023-03-01T06:55:45.560Z,13.77
2023-03-01T06:58:14.907Z,15.15
2023-03-01T07:00:44.246Z,13.95
2023-03-01T07:03:12.450Z,14.35
2023-03-01T07:05:40.743Z,14.00
2023-03-01T07:08:10.676Z,15.75
2023-03-01T07:10:38.668Z,16.25
2023-03-01T07:13:08.144Z,16.67
2023-03-01T07:15:36.031Z,15.98
2023-03-01T07:18:04.332Z,15.98
2023-03-01T07:20:32.136Z,15.60
2023-03-01T07:23:00.267Z,16.85
2023-03-01T07:25:28.133Z,17.85
2023-03-01T07:27:56.360Z,16.58
2023-03-01T07:30:27.295Z,16.45
2023-03-01T07:32:56.766Z,17.58
2023-03-01T07:35:27.896Z,16.83
2023-03-01T07:37:56.261Z,16.60
2023-03-01T07:40:24.061Z,16.60
2023-03-01T07:42:59.783Z,16.95
2023-03-01T07:45:27.679Z,16.10
2023-03-01T07:47:57.201Z,16.63
2023-03-01T07:50:25.117Z,16.40
2023-03-01T07:52:53.217Z,16.38
2023-03-01T07:55:21.299Z,16.35
2023-03-01T07:57:49.409Z,16.40
2023-03-01T08:00:17.548Z,16.73
2023-03-01T08:02:46.742Z,15.93
2023-03-01T08:05:14.820Z,17.25
2023-03-01T08:07:43.174Z,17.65
2023-03-01T08:10:12.623Z,15.52
2023-03-01T08:12:40.748Z,16.67
2023-03-01T08:15:09.375Z,15.57
2023-03-01T08:17:37.552Z,17.55
2023-03-01T08:20:08.354Z,17.73
2023-03-01T08:22:36.505Z,18.45
2023-03-01T08:25:04.673Z,19.42
2023-03-01T08:27:32.825Z,19.15
2023-03-01T08:30:00.706Z,18.73
2023-03-01T08:32:28.904Z,17.45
2023-03-01T08:34:56.979Z,19.33
2023-03-01T08:37:25.216Z,18.35
2023-03-01T08:39:53.118Z,19.17
2023-03-01T08:42:21.336Z,18.75
2023-03-01T08:44:49.197Z,20.27
2023-03-01T08:47:18.774Z,21.23
2023-03-01T08:49:46.688Z,20.00
2023-03-01T08:52:15.328Z,20.23
2023-03-01T08:54:43.393Z,19.27
2023-03-01T08:57:11.686Z,20.00
2023-03-01T08:59:39.642Z,19.13
2023-03-01T09:02:14.223Z,18.65
2023-03-01T09:04:42.404Z,18.10
2023-03-01T09:07:11.108Z,20.02
2023-03-01T09:09:39.015Z,17.88
2023-03-01T09:12:07.716Z,19.42
2023-03-01T09:14:35.753Z,14.90
2023-03-01T09:17:04.642Z,12.80
2023-03-01T09:19:32.582Z,11.40
2023-03-01T09:22:00.871Z,11.13
2023-03-01T09:24:28.759Z,13.00
2023-03-01T09:26:57.826Z,12.48
2023-03-01T09:29:27.041Z,12.40
2023-03-01T09:31:58.298Z,13.90
2023-03-01T09:34:26.400Z,15.38
2023-03-01T09:36:54.705Z,16.05
2023-03-01T09:39:22.783Z,17.10
2023-03-01T09:42:03.484Z,15.43
2023-03-01T09:44:39.245Z,15.75
2023-03-01T09:47:18.425Z,16.05
2023-03-01T09:50:09.832Z,16.15
2023-03-01T09:52:49.992Z,15.98
2023-03-01T09:55:27.246Z,14.32
2023-03-01T09:58:07.666Z,15.98
2023-03-01T10:00:44.525Z,15.35
2023-03-01T10:03:12.971Z,14.85
2023-03-01T10:06:05.721Z,15.82
2023-03-01T10:08:49.305Z,16.85
2023-03-01T10:11:33.832Z,16.10
2023-03-01T10:14:54.954Z,15.85
2023-03-01T10:17:25.751Z,15.13
2023-03-01T10:19:54.260Z,16.40
2023-03-01T10:22:32.672Z,17.98
2023-03-01T10:25:04.708Z,16.45
2023-03-01T10:27:42.699Z,16.67
2023-03-01T10:30:24.204Z,17.25
2023-03-01T10:32:55.335Z,17.23
2023-03-01T10:35:26.842Z,18.65
2023-03-01T10:38:14.762Z,16.05
2023-03-01T10:41:06.960Z,16.48
2023-03-01T10:43:56.101Z,16.05
2023-03-01T10:46:27.273Z,16.98
2023-03-01T10:49:09.369Z,17.00
2023-03-01T10:51:40.821Z,18.17
2023-03-01T10:54:37.705Z,16.77
2023-03-01T10:57:06.881Z,18.13
2023-03-01T10:59:40.403Z,17.23
2023-03-01T11:04:59.272Z,16.85
2023-03-01T11:07:28.202Z,17.73
2023-03-01T11:09:56.285Z,19.08
2023-03-01T11:12:25.850Z,18.05
2023-03-01T11:14:57.025Z,18.92
2023-03-01T11:17:36.601Z,18.08
2023-03-01T11:20:24.056Z,20.10
2023-03-01T11:22:56.721Z,17.63
2023-03-01T11:25:37.449Z,18.27
2023-03-01T11:28:09.239Z,17.13
2023-03-01T11:30:43.173Z,18.27
2023-03-01T11:33:21.486Z,19.02
2023-03-01T11:35:59.091Z,20.83
2023-03-01T11:38:30.343Z,19.55
2023-03-01T11:41:23.016Z,19.27
2023-03-01T11:44:00.125Z,19.63
2023-03-01T11:46:34.190Z,18.38
2023-03-01T11:49:21.183Z,17.50
2023-03-01T11:51:58.140Z,17.25
2023-03-01T11:54:29.132Z,17.27
2023-03-01T11:57:22.574Z,18.40
2023-03-01T12:00:08.247Z,17.33
2023-03-01T12:02:58.137Z,21.80
2023-03-01T12:05:59.554Z,11.82
2023-03-01T13:02:59.936Z,4.57
2023-03-01T13:06:02.011Z,4.53
2023-03-01T13:09:03.070Z,5.43
2023-03-01T13:11:31.609Z,4.70
2023-03-01T13:14:40.043Z,6.20
2023-03-01T13:17:32.562Z,5.15
2023-03-01T13:20:01.282Z,5.40
2023-03-01T13:22:36.675Z,4.82
2023-03-01T13:25:19.282Z,4.47
2023-03-01T13:27:48.314Z,4.18
2023-03-01T13:30:34.921Z,4.07
2023-03-01T13:33:24.669Z,4.22
2023-03-01T13:35:53.011Z,4.90
2023-03-01T13:38:40.244Z,4.75
2023-03-01T13:41:08.694Z,4.55
2023-03-01T13:43:39.365Z,5.10
2023-03-01T13:46:35.135Z,4.03
2023-03-01T13:49:04.322Z,4.63
2023-03-01T13:51:32.348Z,4.65
2023-03-01T13:54:01.135Z,6.05
2023-03-01T13:56:37.447Z,4.75
2023-03-01T13:59:17.590Z,5.78
2023-03-01T14:01:52.781Z,5.93
2023-03-01T14:04:25.440Z,5.95
2023-03-01T14:07:09.518Z,5.30
2023-03-01T14:09:44.348Z,5.32
2023-03-01T14:12:36.826Z,4.85
2023-03-01T14:15:23.951Z,4.07
2023-03-01T14:18:10.444Z,4.07
2023-03-01T14:20:44.664Z,4.57
2023-03-01T14:26:05.842Z,4.40
2023-03-01T14:28:35.637Z,4.57
2023-03-01T14:31:05.042Z,4.85
2023-03-01T14:33:37.557Z,5.05
2023-03-01T14:36:12.181Z,4.47
2023-03-01T14:38:43.287Z,5.10
2023-03-01T14:41:20.051Z,4.85
2023-03-01T14:44:01.410Z,5.93
2023-03-01T14:46:41.779Z,5.10
2023-03-01T14:49:21.667Z,4.70
2023-03-01T14:52:03.685Z,4.35
2023-03-01T14:54:51.771Z,3.83
2023-03-01T14:57:23.888Z,5.10
2023-03-01T14:59:55.734Z,5.57
2023-03-01T15:02:26.757Z,4.13
2023-03-01T15:05:08.143Z,7.28
2023-03-01T15:07:41.639Z,4.13
2023-03-01T15:10:22.855Z,3.85
2023-03-01T15:12:51.319Z,3.38
2023-03-01T15:15:39.038Z,6.63
2023-03-01T15:18:16.043Z,6.95
2023-03-01T15:20:44.479Z,5.82
2023-03-01T15:23:30.403Z,5.30
2023-03-01T15:25:59.082Z,5.18
2023-03-01T15:28:34.892Z,4.68
2023-03-01T15:31:20.464Z,4.90
2023-03-01T15:33:49.424Z,4.47
2023-03-01T15:36:34.209Z,6.15
2023-03-01T15:39:04.803Z,4.75
2023-03-01T15:41:58.534Z,5.53
2023-03-01T15:44:42.717Z,5.47
2023-03-01T15:47:31.083Z,5.18
2023-03-01T15:50:02.298Z,5.95
2023-03-01T15:52:40.747Z,5.40
2023-03-01T15:55:30.620Z,5.13
2023-03-01T15:58:07.936Z,5.72
2023-03-01T16:00:36.504Z,5.55
2023-03-01T16:03:04.571Z,5.35
2023-03-01T16:05:35.927Z,5.43
2023-03-01T16:08:04.311Z,5.65
2023-03-01T16:10:33.997Z,5.85
2023-03-01T16:13:02.002Z,4.88
2023-03-01T16:15:33.480Z,5.07
2023-03-01T16:18:01.567Z,6.07
2023-03-01T16:20:33.799Z,5.32
2023-03-01T16:23:04.110Z,5.25
2023-03-01T16:25:33.588Z,4.57
2023-03-01T16:28:05.495Z,5.35
2023-03-01T16:30:37.082Z,5.68
2023-03-01T16:33:24.525Z,4.53
2023-03-01T16:35:56.793Z,5.10
2023-03-01T16:38:24.878Z,5.22
2023-03-01T16:40:53.823Z,5.40
2023-03-01T16:43:21.798Z,5.82
2023-03-01T16:45:50.327Z,5.50
2023-03-01T16:48:18.332Z,5.80
2023-03-01T16:50:46.569Z,5.95
2023-03-01T16:53:14.597Z,4.65
2023-03-01T16:55:46.584Z,5.57
2023-03-01T16:58:16.656Z,5.20
2023-03-01T17:00:45.184Z,5.10
2023-03-01T17:03:14.989Z,5.85
2023-03-01T17:05:46.350Z,5.72
2023-03-01T17:08:14.671Z,5.30
2023-03-01T17:10:43.477Z,5.45
2023-03-01T17:13:12.403Z,5.68
2023-03-01T17:15:43.989Z,5.40
2023-03-01T17:18:12.053Z,6.95
2023-03-01T17:20:40.388Z,9.77
2023-03-01T17:23:08.458Z,9.05
2023-03-01T17:25:36.745Z,6.65
2023-03-01T17:28:05.050Z,6.72
2023-03-01T17:30:33.417Z,7.10
2023-03-01T17:33:01.969Z,6.18
2023-03-01T17:35:30.373Z,6.60
2023-03-01T17:37:58.243Z,6.75
2023-03-01T17:40:26.901Z,6.07
2023-03-01T17:42:54.888Z,6.03
2023-03-01T17:45:23.217Z,6.47
2023-03-01T17:47:51.237Z,7.03
2023-03-01T17:50:19.836Z,6.70
2023-03-01T17:52:48.046Z,6.85
2023-03-01T17:55:16.771Z,5.53
2023-03-01T17:57:44.778Z,5.90
2023-03-01T18:00:14.836Z,6.03
2023-03-01T18:02:43.339Z,5.35
2023-03-01T18:05:12.122Z,5.40
2023-03-01T18:07:40.180Z,5.70
2023-03-01T18:10:09.571Z,6.20
2023-03-01T18:12:38.326Z,5.53
2023-03-01T18:15:07.630Z,7.75
2023-03-01T18:17:35.768Z,6.30
2023-03-01T18:20:05.847Z,5.32
2023-03-01T18:22:34.009Z,6.63
2023-03-01T18:25:02.551Z,5.88
2023-03-01T18:27:31.288Z,5.97
2023-03-01T18:29:59.868Z,6.20
2023-03-01T18:32:29.506Z,9.65
2023-03-01T18:34:58.010Z,7.88
2023-03-01T18:37:26.088Z,6.57
2023-03-01T18:39:55.050Z,5.90
2023-03-01T18:42:23.218Z,5.28
2023-03-01T18:44:51.752Z,5.03
2023-03-01T18:47:19.769Z,5.47
2023-03-01T18:49:48.859Z,4.72
2023-03-01T18:52:16.995Z,4.30
2023-03-01T18:54:45.449Z,4.47
2023-03-01T18:57:13.540Z,4.72
2023-03-01T18:59:42.200Z,5.10
2023-03-01T19:02:13.131Z,5.65
2023-03-01T19:04:42.585Z,7.97
2023-03-01T19:07:12.710Z,4.53
2023-03-01T19:09:41.192Z,6.20
2023-03-01T19:12:09.296Z,5.28
2023-03-01T19:14:37.781Z,4.65
2023-03-01T19:17:05.815Z,6.43
2023-03-01T19:19:35.767Z,6.43
2023-03-01T19:22:06.125Z,5.13
2023-03-01T19:24:37.783Z,6.57
2023-03-01T19:27:06.035Z,9.32
2023-03-01T19:29:35.474Z,5.90
2023-03-01T19:32:03.625Z,5.90
2023-03-01T19:34:32.260Z,5.03
2023-03-01T19:37:00.394Z,5.07
2023-03-01T19:39:28.774Z,4.22
2023-03-01T19:41:57.062Z,4.25
2023-03-01T19:44:25.646Z,4.03
2023-03-01T19:46:54.903Z,3.65
2023-03-01T19:49:24.359Z,3.72
2023-03-01T19:51:53.121Z,3.92
2023-03-01T19:54:22.964Z,3.60
2023-03-01T19:56:51.708Z,3.60
2023-03-01T19:59:24.746Z,3.08
2023-03-01T20:01:52.831Z,3.53
2023-03-01T20:04:21.358Z,2.65
2023-03-01T20:06:50.265Z,3.20
2023-03-01T20:09:22.175Z,2.80
2023-03-01T20:11:51.762Z,2.75
2023-03-01T20:14:22.481Z,3.85
2023-03-01T20:16:52.609Z,2.58
2023-03-01T20:19:21.791Z,3.08
2023-03-01T20:21:51.129Z,3.45
2023-03-01T20:24:20.756Z,2.83
2023-03-01T20:26:49.614Z,3.13
2023-03-01T20:29:19.269Z,3.10
2023-03-01T20:31:47.862Z,3.50
2023-03-01T20:34:17.257Z,3.65
2023-03-01T20:36:47.994Z,3.05
2023-03-01T20:39:17.449Z,2.80
2023-03-01T20:41:46.634Z,3.70
2023-03-01T20:44:15.137Z,4.03
2023-03-01T20:46:44.432Z,3.13
2023-03-01T20:49:14.118Z,2.40
2023-03-01T20:51:43.878Z,3.10
2023-03-01T20:54:13.492Z,3.10
2023-03-01T20:56:42.208Z,2.45
2023-03-01T20:59:12.847Z,2.70
2023-03-01T21:01:41.123Z,2.47
2023-03-01T21:04:10.801Z,2.50
2023-03-01T21:06:39.762Z,2.08
2023-03-01T21:09:08.599Z,2.53
2023-03-01T21:11:36.974Z,1.92
2023-03-01T21:14:05.856Z,1.95
2023-03-01T21:16:35.834Z,1.70
2023-03-01T21:19:04.895Z,1.90
2023-03-01T21:21:32.998Z,1.80
2023-03-01T21:24:01.361Z,2.10
2023-03-01T21:26:29.620Z,2.00
2023-03-01T21:29:01.568Z,2.50
2023-03-01T21:31:35.292Z,2.50
2023-03-01T21:34:06.817Z,2.05
2023-03-01T21:36:36.240Z,2.30
2023-03-01T21:39:06.979Z,2.28
2023-03-01T21:41:37.435Z,2.92
2023-03-01T21:44:07.564Z,2.67
2023-03-01T21:46:38.830Z,2.80
2023-03-01T21:49:08.999Z,3.42
2023-03-01T21:51:37.658Z,2.67
2023-03-01T21:54:07.035Z,3.15
2023-03-01T21:56:39.355Z,3.28
2023-03-01T21:59:19.590Z,2.85
2023-03-01T22:01:48.953Z,2.42
2023-03-01T22:04:18.384Z,2.50
2023-03-01T22:06:47.299Z,2.10
2023-03-01T22:09:18.555Z,3.17
2023-03-01T22:11:51.167Z,2.58
2023-03-01T22:14:21.312Z,2.50
2023-03-01T22:16:51.757Z,2.15
2023-03-01T22:19:22.092Z,2.50
2023-03-01T22:21:53.046Z,2.42
2023-03-01T22:24:24.639Z,2.70
2023-03-01T22:26:55.151Z,2.35
2023-03-01T22:29:29.179Z,2.50
2023-03-01T22:31:58.391Z,3.60
2023-03-01T22:34:27.280Z,2.78
2023-03-01T22:36:55.243Z,2.35
2023-03-01T22:39:23.528Z,2.63
2023-03-01T22:41:51.615Z,2.53
2023-03-01T22:44:22.412Z,2.20
2023-03-01T22:46:51.338Z,2.40
2023-03-01T22:49:20.231Z,2.10
2023-03-01T22:51:48.363Z,1.75
2023-03-01T22:54:17.702Z,2.03
2023-03-01T22:56:46.654Z,2.00
2023-03-01T22:59:19.071Z,1.98
2023-03-01T23:01:48.080Z,2.28
2023-03-01T23:04:17.802Z,1.90
2023-03-01T23:06:55.833Z,1.90
2023-03-01T23:09:34.491Z,2.30
2023-03-01T23:12:07.031Z,1.70
2023-03-01T23:14:36.154Z,2.30
2023-03-01T23:17:05.598Z,2.67
2023-03-01T23:19:34.282Z,2.70
2023-03-01T23:22:02.335Z,3.55
2023-03-01T23:24:33.372Z,2.85
2023-03-01T23:27:02.443Z,2.28
2023-03-01T23:29:31.426Z,3.13
2023-03-01T23:32:00.140Z,2.63
2023-03-01T23:34:29.146Z,2.63
2023-03-01T23:36:58.175Z,2.90
2023-03-01T23:39:27.743Z,2.33
2023-03-01T23:41:57.023Z,2.30
2023-03-01T23:44:25.232Z,2.10
2023-03-01T23:46:53.192Z,1.60
2023-03-01T23:49:23.368Z,1.13
2023-03-01T23:51:51.515Z,1.33
2023-03-01T23:54:23.474Z,1.10
2023-03-01T23:56:52.256Z,1.30
2023-03-01T23:59:23.128Z,1.48
